Terminal Aerodrome Forecast
Issued by NWS Flagstaff, AZ

Home | Current Version | Previous Version | Text Only | Print | Product List | Glossary On
Versions: 1 2 3 4 5 6 7 8 9 10 11 12 13
000
FTUS45 KFGZ 230500
TAFINW
TAF
KINW 230520Z 2306/2406 22009KT P6SM SCT250
     FM231300 28011KT P6SM SCT040 SCT250
     FM231700 31014G22KT P6SM SCT250
     FM240200 VRB05KT P6SM SKC=

USA.gov is the U.S. government's official web portal to all federal, state and local government web resources and services.